createdAt,value
2023-10-09T00:00:38.644Z,6.52
2023-10-09T00:03:29.508Z,6.52
2023-10-09T00:05:59.216Z,6.51
2023-10-09T00:08:37.772Z,6.51
2023-10-09T00:11:20.352Z,6.51
2023-10-09T00:13:53.090Z,6.51
2023-10-09T00:16:33.010Z,6.52
2023-10-09T00:19:15.933Z,6.51
2023-10-09T00:21:42.960Z,6.50
2023-10-09T00:24:14.099Z,6.50
2023-10-09T00:26:46.178Z,6.50
2023-10-09T00:29:22.431Z,6.50
2023-10-09T00:32:08.149Z,6.51
2023-10-09T00:34:40.118Z,6.51
2023-10-09T00:37:16.680Z,6.52
2023-10-09T00:39:44.598Z,6.52
2023-10-09T00:42:19.330Z,6.52
2023-10-09T00:44:54.246Z,6.52
2023-10-09T00:47:32.190Z,6.51
2023-10-09T00:50:01.513Z,6.51
2023-10-09T00:52:35.766Z,6.50
2023-10-09T00:55:08.635Z,6.50
2023-10-09T00:57:40.965Z,6.50
2023-10-09T01:00:33.170Z,6.50
2023-10-09T01:03:20.589Z,6.52
2023-10-09T01:06:11.691Z,6.51
2023-10-09T01:08:45.162Z,6.50
2023-10-09T01:11:20.787Z,6.50
2023-10-09T01:13:50.802Z,6.50
2023-10-09T01:16:19.774Z,6.51
2023-10-09T01:18:52.446Z,6.52
2023-10-09T01:21:24.848Z,6.51
2023-10-09T01:24:09.013Z,6.53
2023-10-09T01:26:41.007Z,6.52
2023-10-09T01:29:15.488Z,6.51
2023-10-09T01:32:01.284Z,6.52
2023-10-09T01:34:53.043Z,6.51
2023-10-09T01:37:30.871Z,6.51
2023-10-09T01:40:36.331Z,6.49
2023-10-09T01:43:04.463Z,6.49
2023-10-09T01:45:42.764Z,6.48
2023-10-09T01:48:09.846Z,6.48
2023-10-09T01:50:40.424Z,6.49
2023-10-09T01:53:09.332Z,6.49
2023-10-09T01:55:41.195Z,6.50
2023-10-09T01:58:28.184Z,6.50
2023-10-09T02:00:57.948Z,6.51
2023-10-09T02:03:24.925Z,6.51
2023-10-09T02:05:55.068Z,6.52
2023-10-09T02:08:36.141Z,6.53
2023-10-09T02:11:03.567Z,6.54
2023-10-09T02:13:42.394Z,6.55
2023-10-09T02:16:15.426Z,6.56
2023-10-09T02:18:59.588Z,6.58
2023-10-09T02:21:40.464Z,6.60
2023-10-09T02:24:10.107Z,6.62
2023-10-09T02:26:59.924Z,6.63
2023-10-09T02:29:28.923Z,6.63
2023-10-09T02:32:01.560Z,6.63
2023-10-09T02:34:29.149Z,6.62
2023-10-09T02:37:01.635Z,6.61
2023-10-09T02:39:29.408Z,6.60
2023-10-09T02:42:18.414Z,6.60
2023-10-09T02:44:50.236Z,6.59
2023-10-09T02:47:30.104Z,6.55
2023-10-09T02:50:07.108Z,6.51
2023-10-09T02:52:42.818Z,6.45
2023-10-09T02:55:14.008Z,6.43
2023-10-09T02:57:42.328Z,6.41
2023-10-09T03:00:19.466Z,6.40
2023-10-09T03:02:50.288Z,6.39
2023-10-09T03:05:32.997Z,6.38
2023-10-09T03:07:59.979Z,6.39
2023-10-09T03:10:26.760Z,6.37
2023-10-09T03:12:56.485Z,6.36
2023-10-09T03:15:23.355Z,6.34
2023-10-09T03:17:50.378Z,6.34
2023-10-09T03:20:19.920Z,6.34
2023-10-09T03:22:51.368Z,6.33
2023-10-09T03:25:18.549Z,6.31
2023-10-09T03:27:46.678Z,6.31
2023-10-09T03:30:23.096Z,6.30
2023-10-09T03:32:54.373Z,6.29
2023-10-09T03:35:34.612Z,6.27
2023-10-09T03:38:12.194Z,6.27
2023-10-09T03:40:47.681Z,6.26
2023-10-09T03:43:17.474Z,6.25
2023-10-09T03:45:54.731Z,6.24
2023-10-09T03:48:23.404Z,6.23
2023-10-09T03:51:09.859Z,6.23
2023-10-09T03:53:37.269Z,6.21
2023-10-09T03:56:16.283Z,6.19
2023-10-09T03:58:57.315Z,6.17
2023-10-09T04:06:39.409Z,6.19
2023-10-09T04:11:53.013Z,6.22
2023-10-09T04:18:45.584Z,6.21
2023-10-09T04:21:28.557Z,6.21
2023-10-09T05:10:59.804Z,6.47
2023-10-09T05:14:34.986Z,6.52
2023-10-09T05:19:03.483Z,6.56
2023-10-09T05:24:53.623Z,6.59
2023-10-09T05:35:21.682Z,6.73
2023-10-09T05:42:54.054Z,6.83
2023-10-09T05:49:54.395Z,6.87
2023-10-09T06:01:23.362Z,6.97
2023-10-09T06:04:56.513Z,7.01
2023-10-09T06:17:14.654Z,7.12
2023-10-09T06:21:20.397Z,7.14
2023-10-09T06:55:44.948Z,7.38
2023-10-09T11:18:42.866Z,10.76
2023-10-09T11:21:11.766Z,10.81
2023-10-09T11:34:29.766Z,10.88
2023-10-09T14:22:25.678Z,10.58
2023-10-09T14:25:34.301Z,10.57
2023-10-09T14:31:51.782Z,10.49
2023-10-09T14:37:58.746Z,10.41
2023-10-09T14:44:42.694Z,10.32
2023-10-09T14:54:15.755Z,10.20
2023-10-09T15:01:18.941Z,10.11
2023-10-09T15:17:52.798Z,9.94
2023-10-09T15:20:35.743Z,9.91
2023-10-09T15:29:44.581Z,9.78
2023-10-09T15:32:41.150Z,9.74
2023-10-09T15:36:08.804Z,9.70
2023-10-09T15:39:26.758Z,9.67
2023-10-09T15:42:36.650Z,9.67
2023-10-09T15:46:00.596Z,9.64
2023-10-09T15:49:33.785Z,9.62
2023-10-09T15:52:42.577Z,9.59
2023-10-09T15:56:03.732Z,9.57
2023-10-09T15:58:58.432Z,9.55
2023-10-09T16:01:51.201Z,9.52
2023-10-09T16:05:15.629Z,9.50
2023-10-09T16:08:15.224Z,9.48
2023-10-09T16:10:48.111Z,9.45
2023-10-09T16:13:18.482Z,9.46
2023-10-09T16:15:45.421Z,9.46
2023-10-09T16:18:49.422Z,9.46
2023-10-09T16:21:16.549Z,9.45
2023-10-09T16:23:43.762Z,9.43
2023-10-09T16:26:15.689Z,9.41
2023-10-09T16:28:43.574Z,9.40
2023-10-09T16:31:37.145Z,9.40
2023-10-09T16:34:07.718Z,9.39
2023-10-09T16:36:35.871Z,9.38
2023-10-09T16:39:30.003Z,9.37
2023-10-09T16:41:58.029Z,9.36
2023-10-09T16:44:25.089Z,9.37
2023-10-09T16:46:54.909Z,9.36
2023-10-09T16:49:25.631Z,9.35
2023-10-09T16:51:55.636Z,9.35
2023-10-09T16:54:23.006Z,9.35
2023-10-09T16:57:30.915Z,9.33
2023-10-09T16:59:58.478Z,9.33
2023-10-09T17:02:28.119Z,9.33
2023-10-09T17:04:57.706Z,9.34
2023-10-09T17:07:28.362Z,9.34
2023-10-09T17:09:58.456Z,9.34
2023-10-09T17:12:31.054Z,9.36
2023-10-09T17:14:58.918Z,9.35
2023-10-09T17:17:26.035Z,9.36
2023-10-09T17:19:56.648Z,9.36
2023-10-09T17:22:26.146Z,9.36
2023-10-09T17:24:56.272Z,9.36
2023-10-09T17:27:23.407Z,9.37
2023-10-09T17:29:50.484Z,9.38
2023-10-09T17:32:20.950Z,9.37
2023-10-09T17:34:47.832Z,9.37
2023-10-09T17:40:30.198Z,9.37
2023-10-09T17:43:16.057Z,9.35
2023-10-09T17:45:47.958Z,9.35
2023-10-09T17:48:17.813Z,9.33
2023-10-09T17:50:45.524Z,9.32
2023-10-09T17:53:14.915Z,9.30
2023-10-09T17:55:44.822Z,9.30
2023-10-09T17:58:15.071Z,9.27
2023-10-09T18:00:45.938Z,9.26
2023-10-09T18:03:19.734Z,9.27
2023-10-09T18:06:13.334Z,9.28
2023-10-09T18:08:40.272Z,9.29
2023-10-09T18:11:07.297Z,9.28
2023-10-09T18:13:36.821Z,9.26
2023-10-09T18:16:14.616Z,9.25
2023-10-09T18:18:41.675Z,9.25
2023-10-09T18:21:09.368Z,9.26
2023-10-09T18:23:37.464Z,9.24
2023-10-09T18:26:06.549Z,9.25
2023-10-09T18:28:37.007Z,9.25
2023-10-09T18:31:10.616Z,9.25
2023-10-09T18:36:57.431Z,9.25
2023-10-09T18:39:48.918Z,9.25
2023-10-09T18:42:16.103Z,9.25
2023-10-09T18:44:44.388Z,9.24
2023-10-09T18:47:33.952Z,9.25
2023-10-09T18:50:03.968Z,9.25
2023-10-09T18:52:33.877Z,9.25
2023-10-09T18:55:02.229Z,9.25
2023-10-09T18:57:28.924Z,9.25
2023-10-09T19:00:01.836Z,9.25
2023-10-09T19:02:28.898Z,9.25
2023-10-09T19:08:08.686Z,9.23
2023-10-09T19:10:37.766Z,9.23
2023-10-09T19:13:10.645Z,9.22
2023-10-09T19:15:53.212Z,9.21
2023-10-09T19:18:22.604Z,9.19
2023-10-09T19:21:37.153Z,9.17
2023-10-09T19:24:51.949Z,9.14
2023-10-09T19:27:44.042Z,9.11
2023-10-09T19:30:16.981Z,9.07
2023-10-09T19:32:49.045Z,9.03
2023-10-09T19:35:16.676Z,9.01
2023-10-09T19:37:47.005Z,8.99
2023-10-09T19:40:16.933Z,8.96
2023-10-09T19:42:43.937Z,8.94
2023-10-09T19:48:51.030Z,8.89
2023-10-09T19:51:18.536Z,8.86
2023-10-09T19:53:46.396Z,8.83
2023-10-09T19:56:13.688Z,8.80
2023-10-09T19:58:43.869Z,8.78
2023-10-09T20:01:14.344Z,8.72
2023-10-09T20:03:45.095Z,8.68
2023-10-09T20:06:15.779Z,8.64
2023-10-09T20:08:45.939Z,8.63
2023-10-09T20:11:15.565Z,8.62
2023-10-09T20:14:24.148Z,8.64
2023-10-09T20:17:19.013Z,8.67
2023-10-09T20:19:52.515Z,8.69
2023-10-09T20:22:20.417Z,8.72
2023-10-09T20:24:48.633Z,8.73
2023-10-09T20:27:40.899Z,8.75
2023-10-09T20:30:17.568Z,8.78
2023-10-09T20:32:48.045Z,8.79
2023-10-09T20:35:16.067Z,8.78
2023-10-09T20:37:48.804Z,8.76
2023-10-09T20:40:21.915Z,8.75
2023-10-09T20:42:50.165Z,8.76
2023-10-09T20:45:40.524Z,8.78
2023-10-09T20:48:09.236Z,8.80
2023-10-09T20:51:18.489Z,8.82
2023-10-09T20:54:16.024Z,8.84
2023-10-09T20:58:05.573Z,8.88
2023-10-09T21:00:38.458Z,8.89
2023-10-09T21:03:08.790Z,8.90
2023-10-09T21:05:37.459Z,8.91
2023-10-09T21:08:12.807Z,8.91
2023-10-09T21:10:52.641Z,8.91
2023-10-09T21:13:24.781Z,8.91
2023-10-09T21:16:07.858Z,8.91
2023-10-09T21:18:40.003Z,8.91
2023-10-09T21:21:16.600Z,8.91
2023-10-09T21:23:45.834Z,8.92
2023-10-09T21:26:22.764Z,8.91
2023-10-09T21:28:52.523Z,8.92
2023-10-09T21:31:23.837Z,8.92
2023-10-09T21:33:52.419Z,8.92
2023-10-09T21:36:21.336Z,8.91
2023-10-09T21:38:51.959Z,8.91
2023-10-09T21:41:23.114Z,8.90
2023-10-09T21:43:57.541Z,8.87
2023-10-09T21:46:27.119Z,8.85
2023-10-09T21:48:59.699Z,8.82
2023-10-09T21:51:28.251Z,8.79
2023-10-09T21:53:59.046Z,8.76
2023-10-09T21:56:31.855Z,8.72
2023-10-09T21:59:00.570Z,8.67
2023-10-09T22:01:29.192Z,8.61
2023-10-09T22:03:58.905Z,8.56
2023-10-09T22:07:31.431Z,8.51
2023-10-09T22:10:15.004Z,8.46
2023-10-09T22:12:50.571Z,8.42
2023-10-09T22:15:19.639Z,8.38
2023-10-09T22:17:48.266Z,8.35
2023-10-09T22:20:24.634Z,8.31
2023-10-09T22:22:57.966Z,8.28
2023-10-09T22:25:37.085Z,8.27
2023-10-09T22:28:12.491Z,8.26
2023-10-09T22:30:44.895Z,8.24
2023-10-09T22:33:22.577Z,8.20
2023-10-09T22:35:56.519Z,8.14
2023-10-09T22:38:30.717Z,8.12
2023-10-09T22:41:02.221Z,8.11
2023-10-09T22:43:33.377Z,8.11
2023-10-09T22:46:13.230Z,8.11
2023-10-09T22:48:49.524Z,8.13
2023-10-09T22:51:25.495Z,8.14
2023-10-09T22:53:54.467Z,8.16
2023-10-09T22:56:22.646Z,8.16
2023-10-09T22:58:57.122Z,8.17
2023-10-09T23:01:32.452Z,8.15
2023-10-09T23:04:11.327Z,8.10
2023-10-09T23:06:45.997Z,8.09
2023-10-09T23:09:32.396Z,8.08
2023-10-09T23:12:10.005Z,8.06
2023-10-09T23:14:40.950Z,8.06
2023-10-09T23:17:09.228Z,8.07
2023-10-09T23:19:42.847Z,8.08
2023-10-09T23:22:16.187Z,8.09
2023-10-09T23:25:09.374Z,8.10
2023-10-09T23:27:39.382Z,8.12
2023-10-09T23:30:24.801Z,8.13
2023-10-09T23:33:12.969Z,8.11
2023-10-09T23:36:15.545Z,8.10
2023-10-09T23:39:02.706Z,8.10
2023-10-09T23:41:34.566Z,8.08
2023-10-09T23:44:10.886Z,8.07
2023-10-09T23:46:41.203Z,8.05
2023-10-09T23:49:10.445Z,8.03
2023-10-09T23:51:41.832Z,8.01
2023-10-09T23:54:13.406Z,7.99
2023-10-09T23:56:48.778Z,7.96
2023-10-09T23:59:18.200Z,7.94
